Pagina principale
METAR-TAF:

METAR-TAF

Aeroporti :

Coatesville, Pennsylvania, Stati Uniti

latitudine: 39-58-44N, longitudine: 075-51-56W, altezza: 201 m

Osservazione

Il bollettino è stato emesso 16 minuti fa, alle 07:35 UTC
Vento 7 kt da ovest/nord-ovest
Temperature 15°C
Umidità 88%
Pressione 1020 hPa
Visibilità: 16.1 km
Cielo sereno

METAR: KMQS 240735Z AUTO 30007KT 10SM CLR 15/13 A3011 RMK AO2

Ora: 03:51 (07:51 UTC)


TAF: mancante

Osservazioni e previsioni meteorologiche di più di 4000 aeroporti (messaggi METAR e TAF).

Le stazioni disponibili sono rappresentate dai dischi gialli e rossi sulla carta.

Puntare il mouse per vedere il nome della stazione.

Clicca sopra per visualizzare le osservazioni e previsioni meteorologiche.

Per cambiare la mappa : fare clic sui pulsanti verdi con una croce nera per ingrandire, il pulsante verde con un trattino per diminuire, o sulla freccia verde per le mappe adiacenti.


METAR-TAF: